Hartland, Ohio
Current Conditions -  °F | °C
As of 1:53 PM on Monday 22 Dec 2014 (Local Time) from KLPR Reporting Station
Clear Clear  
Wind Chill: 34°   Ceiling: Unl
Heat Index: 40°   Visibility: 8mi
Dew Point: 31°   Wind: 9mph
Humidity: 70%   Direction: 170°S
Pressure: 29.98"   Gusts: NA
Location:  41.2186°N, 82.5851°W
Report Text: KLPR 221853Z AUTO 17008KT 8SM CLR 04/M01 A2998 RMK AO2 SLP160 T00441006 TSNO
Loading
Personal Weather Stations






























Interactive Weather Map New forecast layout! Learn more

10-Day Weather Forecast

Advertisements
Track Severe Weather on mobile